Time;durP1;ratioP1;P1;durP2;ratioP2;P2;SDS_P1;SDS_P2;PMS_P1;PMS_P2;Temp;Humidity;BMP_temperature;BMP_pressure;BME280_temperature;BME280_humidity;BME280_pressure;Samples;Min_cycle;Max_cycle;Signal;HPM_P1;HPM_P2
2022/04/08 00:01:41;;;;;;;21.90;1.63;;;5.20;99.90;;;;;;5136346;27;20479;-79
2022/04/08 00:04:08;;;;;;;14.43;1.17;;;5.20;99.90;;;;;;5136084;27;20082;-79
2022/04/08 00:06:34;;;;;;;17.42;1.00;;;5.20;99.90;;;;;;5155180;27;20122;-80
2022/04/08 00:08:59;;;;;;;12.63;1.08;;;5.30;99.90;;;;;;5155281;27;20058;-81
2022/04/08 00:11:25;;;;;;;9.50;0.88;;;5.30;99.90;;;;;;5136412;27;20076;-81
2022/04/08 00:13:53;;;;;;;12.27;0.88;;;5.30;99.90;;;;;;5135812;27;20385;-81
2022/04/08 00:16:19;;;;;;;;;;;5.30;99.90;;;;;;5156573;27;20052;-79
2022/04/08 00:18:45;;;;;;;16.03;1.13;;;5.20;99.90;;;;;;5121511;27;19919;-80
2022/04/08 00:21:11;;;;;;;5.68;0.77;;;5.30;99.90;;;;;;5156284;27;20386;-79
2022/04/08 00:23:40;;;;;;;18.63;0.90;;;5.20;99.90;;;;;;5155819;27;20046;-79
2022/04/08 00:26:06;;;;;;;9.90;0.65;;;5.10;99.90;;;;;;5132906;27;20135;-79
2022/04/08 00:28:32;;;;;;;5.97;0.50;;;5.10;99.90;;;;;;5133069;28;20122;-80
2022/04/08 00:30:57;;;;;;;12.63;0.95;;;5.10;99.90;;;;;;5116710;28;20039;-79
2022/04/08 00:33:23;;;;;;;6.60;0.38;;;5.10;99.90;;;;;;5118386;28;20129;-79
2022/04/08 00:35:49;;;;;;;9.07;1.10;;;5.00;99.90;;;;;;5107017;28;20133;-79
2022/04/08 00:38:15;;;;;;;11.45;0.80;;;5.00;99.90;;;;;;5141399;28;20038;-80
2022/04/08 00:40:40;;;;;;;14.75;1.05;;;5.00;99.90;;;;;;5139806;28;20339;-78
2022/04/08 00:43:17;;;;;;;7.10;0.68;;;5.10;99.90;;;;;;5120280;28;20043;-79
2022/04/08 00:45:44;;;;;;;13.13;0.63;;;5.00;99.90;;;;;;5122478;28;20051;-79
2022/04/08 00:48:10;;;;;;;7.30;0.93;;;4.90;99.90;;;;;;5124031;28;20039;-80
2022/04/08 00:50:43;;;;;;;5.82;0.75;;;4.80;99.90;;;;;;5119256;28;20047;-79
2022/04/08 00:53:09;;;;;;;3.03;0.30;;;4.60;99.90;;;;;;5134552;28;20054;-79
2022/04/08 00:55:37;;;;;;;8.55;0.82;;;4.60;99.90;;;;;;5120188;28;20043;-80
2022/04/08 00:58:04;;;;;;;9.55;0.75;;;4.40;99.90;;;;;;5139654;27;20047;-80
2022/04/08 01:00:37;;;;;;;11.27;0.45;;;4.40;99.90;;;;;;5136691;28;20047;-78
2022/04/08 01:03:04;;;;;;;5.63;0.40;;;4.40;99.90;;;;;;5138561;28;20080;-78
2022/04/08 01:05:31;;;;;;;10.88;0.45;;;4.50;99.90;;;;;;5142533;27;20048;-78
2022/04/08 01:07:57;;;;;;;6.55;0.52;;;4.40;99.90;;;;;;5141058;28;20122;-79
2022/04/08 01:10:24;;;;;;;9.43;0.50;;;4.40;99.90;;;;;;5142620;27;20126;-78
2022/04/08 01:12:50;;;;;;;10.45;0.60;;;4.50;99.90;;;;;;5138355;28;20043;-79
2022/04/08 01:15:17;;;;;;;9.87;0.83;;;4.50;99.90;;;;;;5136535;28;20100;-81
2022/04/08 01:17:43;;;;;;;8.93;0.90;;;4.40;99.90;;;;;;5137629;27;20035;-77
2022/04/08 01:20:12;;;;;;;10.90;1.70;;;4.30;99.90;;;;;;5138303;28;20058;-81
2022/04/08 01:22:39;;;;;;;8.00;0.65;;;4.30;99.90;;;;;;5138938;27;20126;-81
2022/04/08 01:25:06;;;;;;;17.65;1.67;;;4.20;99.90;;;;;;5136695;27;20049;-81
2022/04/08 01:27:32;;;;;;;;;;;4.10;99.90;;;;;;5139004;27;20455;-82
2022/04/08 01:29:58;;;;;;;12.23;1.70;;;4.00;99.90;;;;;;5124425;27;19919;-83
2022/04/08 01:32:24;;;;;;;10.95;1.10;;;4.00;99.90;;;;;;5140551;27;20082;-81
2022/04/08 01:34:52;;;;;;;13.05;1.20;;;3.90;99.90;;;;;;5140624;27;20074;-80
2022/04/08 01:37:18;;;;;;;10.38;0.98;;;3.90;99.90;;;;;;5122746;27;20070;-82
2022/04/08 01:39:44;;;;;;;10.85;0.80;;;3.80;99.90;;;;;;5139641;27;20127;-81
2022/04/08 01:42:10;;;;;;;7.60;0.50;;;3.80;99.90;;;;;;5139828;27;20143;-82
2022/04/08 01:44:37;;;;;;;22.05;1.38;;;3.80;99.90;;;;;;5123494;27;20046;-81
2022/04/08 01:47:03;;;;;;;10.20;0.70;;;3.70;99.90;;;;;;5139604;27;20047;-81
2022/04/08 01:49:29;;;;;;;8.05;0.70;;;3.70;99.90;;;;;;5140315;27;20043;-79
2022/04/08 01:51:55;;;;;;;12.10;0.80;;;3.70;99.90;;;;;;5140444;27;20072;-79
2022/04/08 01:54:21;;;;;;;18.58;0.80;;;3.70;99.90;;;;;;5121605;27;20124;-79
2022/04/08 01:56:47;;;;;;;18.77;1.00;;;3.70;99.90;;;;;;5139868;27;20047;-78
2022/04/08 01:59:13;;;;;;;13.52;1.20;;;3.60;99.90;;;;;;5138618;27;20054;-80
2022/04/08 02:01:39;;;;;;;13.32;1.17;;;3.50;99.90;;;;;;5141629;27;20039;-79
2022/04/08 02:04:05;;;;;;;7.43;0.60;;;3.50;99.90;;;;;;5142870;27;20101;-81
2022/04/08 02:06:31;;;;;;;13.50;1.50;;;3.50;99.90;;;;;;5140319;27;20067;-79
2022/04/08 02:08:58;;;;;;;13.00;0.77;;;3.40;99.90;;;;;;5138220;27;20043;-79
2022/04/08 02:11:24;;;;;;;15.40;1.20;;;3.40;99.90;;;;;;5106678;27;20134;-81
2022/04/08 02:13:50;;;;;;;13.13;0.98;;;3.30;99.90;;;;;;5139781;27;20057;-79
2022/04/08 02:16:16;;;;;;;12.05;0.82;;;3.20;99.90;;;;;;5121797;27;20039;-78
2022/04/08 02:18:42;;;;;;;9.60;1.17;;;3.30;99.90;;;;;;5121751;27;20086;-78
2022/04/08 02:21:09;;;;;;;15.85;1.52;;;3.20;99.90;;;;;;5142079;27;20035;-79
2022/04/08 02:23:36;;;;;;;13.70;1.48;;;3.10;99.90;;;;;;5138444;27;20050;-80
2022/04/08 02:26:06;;;;;;;13.63;1.00;;;3.10;99.90;;;;;;5135036;27;20081;-80
2022/04/08 02:28:35;;;;;;;16.08;1.17;;;3.10;99.90;;;;;;5117918;27;20493;-80
2022/04/08 02:31:01;;;;;;;14.05;1.38;;;3.10;99.90;;;;;;5117535;27;20046;-80
2022/04/08 02:33:27;;;;;;;17.25;1.27;;;3.20;99.90;;;;;;5135212;27;20158;-80
2022/04/08 02:35:52;;;;;;;17.02;1.65;;;3.20;99.90;;;;;;5118494;27;20039;-80
2022/04/08 02:38:18;;;;;;;13.18;1.10;;;3.20;99.90;;;;;;5136195;27;20043;-78
2022/04/08 02:40:44;;;;;;;14.35;1.63;;;3.40;99.90;;;;;;5137931;27;20047;-79
2022/04/08 02:43:10;;;;;;;20.73;1.15;;;3.50;99.90;;;;;;5118175;27;20148;-79
2022/04/08 02:45:36;;;;;;;16.48;1.60;;;3.60;99.90;;;;;;5134152;27;20043;-81
2022/04/08 02:48:03;;;;;;;12.63;1.08;;;3.70;99.90;;;;;;5134903;27;20050;-81
2022/04/08 02:50:29;;;;;;;11.93;0.97;;;3.80;99.90;;;;;;5134335;27;20049;-78
2022/04/08 02:52:54;;;;;;;16.23;1.10;;;3.80;99.90;;;;;;5116678;27;20360;-80
2022/04/08 02:55:20;;;;;;;14.82;0.90;;;3.80;99.90;;;;;;5133755;27;20047;-81
2022/04/08 02:57:47;;;;;;;15.60;1.40;;;3.60;99.90;;;;;;5116278;27;20047;-79
2022/04/08 03:00:15;;;;;;;9.73;1.45;;;3.50;99.90;;;;;;5135013;27;20483;-80
2022/04/08 03:02:41;;;;;;;9.57;0.70;;;3.40;99.90;;;;;;5135885;27;20302;-79
2022/04/08 03:05:07;;;;;;;15.77;1.08;;;3.30;99.90;;;;;;5133621;27;20371;-79
2022/04/08 03:07:34;;;;;;;12.68;1.20;;;3.20;99.90;;;;;;5116761;27;20417;-79
2022/04/08 03:10:00;;;;;;;17.50;1.25;;;3.20;99.90;;;;;;5134980;27;20062;-79
2022/04/08 03:12:26;;;;;;;9.18;0.73;;;3.00;99.90;;;;;;5134481;27;20043;-80
2022/04/08 03:14:52;;;;;;;12.60;1.25;;;3.10;99.90;;;;;;5134122;27;20043;-80
2022/04/08 03:17:18;;;;;;;12.25;1.20;;;3.00;99.90;;;;;;5133596;27;20050;-79
2022/04/08 03:19:43;;;;;;;16.00;0.90;;;3.00;99.90;;;;;;5134619;27;20046;-79
2022/04/08 03:22:09;;;;;;;12.38;1.05;;;2.90;99.90;;;;;;5134857;27;20043;-80
2022/04/08 03:24:35;;;;;;;4.68;0.75;;;3.00;99.90;;;;;;5133137;27;20070;-79
2022/04/08 03:27:00;;;;;;;10.48;0.75;;;3.00;99.90;;;;;;5115385;27;20115;-79
2022/04/08 03:29:26;;;;;;;7.40;1.10;;;2.90;99.90;;;;;;5133204;27;20046;-79
2022/04/08 03:31:52;;;;;;;13.90;0.90;;;2.90;99.90;;;;;;5133486;27;20089;-78
2022/04/08 03:34:18;;;;;;;11.55;1.88;;;3.00;99.90;;;;;;5117128;27;20132;-81
2022/04/08 03:36:45;;;;;;;19.55;1.02;;;3.00;99.90;;;;;;5135134;27;20039;-79
2022/04/08 03:39:13;;;;;;;19.58;1.25;;;3.10;99.90;;;;;;5135380;27;20499;-80
2022/04/08 03:41:39;;;;;;;15.70;1.20;;;3.20;99.90;;;;;;5133654;27;20042;-78
2022/04/08 03:44:05;;;;;;;18.95;1.17;;;3.30;99.90;;;;;;5135985;27;20415;-80
2022/04/08 03:46:31;;;;;;;11.90;1.10;;;3.40;99.90;;;;;;5117487;27;20055;-81
2022/04/08 03:48:57;;;;;;;18.83;1.40;;;3.40;99.90;;;;;;5115297;27;20123;-79
2022/04/08 03:51:23;;;;;;;11.27;1.30;;;3.50;99.90;;;;;;5134539;27;20081;-79
2022/04/08 03:53:48;;;;;;;18.58;1.75;;;3.50;99.90;;;;;;5132710;27;20091;-80
2022/04/08 03:56:16;;;;;;;24.42;1.42;;;3.50;99.90;;;;;;5132689;27;20047;-79
2022/04/08 03:58:42;;;;;;;23.77;1.67;;;3.50;99.90;;;;;;5133085;27;20047;-81
2022/04/08 04:01:08;;;;;;;12.90;1.38;;;3.50;99.90;;;;;;5117672;27;20054;-80
2022/04/08 04:03:33;;;;;;;17.00;1.25;;;3.50;99.90;;;;;;5137127;27;20046;-78
2022/04/08 04:06:00;;;;;;;20.55;1.77;;;3.50;99.90;;;;;;5135094;27;20047;-80
2022/04/08 04:08:26;;;;;;;17.30;2.00;;;3.50;99.90;;;;;;5133569;27;20083;-80
2022/04/08 04:10:51;;;;;;;20.73;1.58;;;3.50;99.90;;;;;;5133357;27;20345;-78
2022/04/08 04:13:19;;;;;;;21.50;2.25;;;3.50;99.90;;;;;;5134800;27;20070;-80
2022/04/08 04:15:44;;;;;;;16.30;1.52;;;3.50;99.90;;;;;;5134458;27;20150;-78
2022/04/08 04:18:10;;;;;;;17.48;2.33;;;3.40;99.90;;;;;;5138039;27;20431;-79
2022/04/08 04:20:36;;;;;;;19.33;1.55;;;3.30;99.90;;;;;;5138818;27;20075;-79
2022/04/08 04:23:02;;;;;;;17.35;2.15;;;3.30;99.90;;;;;;5137643;28;20092;-76
2022/04/08 04:25:28;;;;;;;9.50;1.60;;;3.30;99.90;;;;;;5136864;27;20039;-79
2022/04/08 04:27:55;;;;;;;9.80;1.13;;;3.30;99.90;;;;;;5105595;27;20051;-79
2022/04/08 04:30:21;;;;;;;17.73;1.77;;;3.20;99.90;;;;;;5156970;27;20077;-77
2022/04/08 04:32:46;;;;;;;11.45;1.73;;;3.30;99.90;;;;;;5138492;27;20363;-79
2022/04/08 04:35:12;;;;;;;14.88;1.10;;;3.10;99.90;;;;;;5122400;27;20102;-80
2022/04/08 04:37:38;;;;;;;13.02;1.25;;;3.10;99.90;;;;;;5139312;27;20435;-79
2022/04/08 04:40:05;;;;;;;17.60;1.48;;;3.10;99.90;;;;;;5119844;27;20436;-78
2022/04/08 04:42:31;;;;;;;7.22;1.52;;;3.20;99.90;;;;;;5136691;27;20038;-80
2022/04/08 04:44:57;;;;;;;13.10;2.03;;;3.20;99.90;;;;;;5138144;27;20106;-79
2022/04/08 04:47:23;;;;;;;11.50;1.53;;;3.30;99.90;;;;;;5157725;27;20042;-79
2022/04/08 04:49:49;;;;;;;9.68;1.50;;;3.30;99.90;;;;;;5138010;27;20319;-76
2022/04/08 04:52:15;;;;;;;13.95;1.60;;;3.50;99.90;;;;;;5104851;27;20082;-78
2022/04/08 04:54:41;;;;;;;15.63;1.67;;;3.30;99.90;;;;;;5156296;27;20057;-79
2022/04/08 04:57:07;;;;;;;13.32;2.10;;;3.30;99.90;;;;;;5136204;27;20035;-81
2022/04/08 04:59:33;;;;;;;9.90;1.70;;;3.30;99.90;;;;;;5155518;27;20053;-79
2022/04/08 05:01:59;;;;;;;12.85;1.25;;;3.20;99.90;;;;;;5140040;27;20051;-80
2022/04/08 05:04:25;;;;;;;13.18;1.83;;;3.10;99.90;;;;;;5127261;27;20134;-81
2022/04/08 05:06:51;;;;;;;18.95;2.30;;;3.10;99.90;;;;;;5143877;27;20070;-79
2022/04/08 05:09:17;;;;;;;24.73;2.05;;;3.10;99.90;;;;;;5161318;27;20443;-81
2022/04/08 05:11:43;;;;;;;16.67;2.05;;;3.20;99.90;;;;;;5160427;27;20061;-79
2022/04/08 05:14:08;;;;;;;16.27;1.88;;;3.30;99.90;;;;;;5158444;27;20078;-81
2022/04/08 05:16:37;;;;;;;12.57;2.05;;;3.30;99.90;;;;;;5158299;27;20376;-79
2022/04/08 05:19:03;;;;;;;14.80;1.73;;;3.40;99.90;;;;;;5122179;27;20053;-81
2022/04/08 05:21:29;;;;;;;17.05;2.10;;;3.50;99.90;;;;;;5139529;27;20107;-80
2022/04/08 05:23:56;;;;;;;15.73;1.90;;;3.60;99.90;;;;;;5139762;27;20061;-79
2022/04/08 05:26:22;;;;;;;19.67;2.17;;;3.60;99.90;;;;;;5145881;27;20090;-82
2022/04/08 05:28:48;;;;;;;17.38;1.67;;;3.60;99.90;;;;;;5161611;27;20088;-82
2022/04/08 05:31:14;;;;;;;11.13;2.72;;;3.60;99.90;;;;;;5124807;27;20046;-81
2022/04/08 05:33:40;;;;;;;16.23;2.05;;;3.60;99.90;;;;;;5109868;27;20043;-83
2022/04/08 05:36:06;;;;;;;17.08;2.25;;;3.50;99.90;;;;;;5143358;27;20043;-81
2022/04/08 05:38:31;;;;;;;11.38;1.35;;;3.40;99.90;;;;;;5141175;27;20043;-80
2022/04/08 05:40:57;;;;;;;9.65;1.40;;;3.10;99.90;;;;;;5140758;27;20047;-81
2022/04/08 05:43:23;;;;;;;12.98;1.98;;;2.90;99.90;;;;;;5123954;27;20039;-81
2022/04/08 05:45:49;;;;;;;10.07;1.90;;;2.90;99.90;;;;;;5141058;27;20425;-81
2022/04/08 05:48:15;;;;;;;7.28;1.25;;;2.80;99.90;;;;;;5140275;27;20042;-82
2022/04/08 05:50:40;;;;;;;14.80;1.55;;;2.90;99.90;;;;;;5139556;27;20057;-81
2022/04/08 05:53:06;;;;;;;10.50;1.20;;;2.90;99.90;;;;;;5106105;27;20049;-82
2022/04/08 05:55:32;;;;;;;10.95;1.20;;;2.90;99.90;;;;;;5140534;27;20118;-82
2022/04/08 05:57:58;;;;;;;14.75;1.50;;;3.00;99.90;;;;;;5122681;27;20474;-82
2022/04/08 06:00:24;;;;;;;20.50;2.15;;;3.00;99.90;;;;;;5105130;27;20053;-82
2022/04/08 06:02:53;;;;;;;13.18;1.50;;;3.00;99.90;;;;;;5122267;27;20049;-80
2022/04/08 06:05:19;;;;;;;10.07;1.45;;;3.00;99.90;;;;;;5139144;27;20115;-80
2022/04/08 06:07:50;;;;;;;5.93;1.38;;;3.00;99.90;;;;;;5139645;27;20099;-81
2022/04/08 06:10:21;;;;;;;6.80;1.45;;;2.90;99.90;;;;;;5158412;27;20347;-81
2022/04/08 06:12:48;;;;;;;8.65;1.90;;;2.80;99.90;;;;;;5158096;27;20071;-81
2022/04/08 06:15:14;;;;;;;7.50;1.20;;;2.70;99.90;;;;;;5107288;27;20043;-83
2022/04/08 06:17:40;;;;;;;4.80;1.17;;;2.70;99.90;;;;;;5126613;27;20145;-80
2022/04/08 06:20:09;;;;;;;3.55;0.90;;;2.60;99.90;;;;;;5161156;27;20088;-79
2022/04/08 06:22:39;;;;;;;5.35;1.25;;;2.60;99.90;;;;;;5124803;27;20133;-78
2022/04/08 06:25:07;;;;;;;6.28;1.10;;;2.50;99.90;;;;;;5158323;27;20402;-82
2022/04/08 06:27:33;;;;;;;8.00;1.70;;;2.50;99.90;;;;;;5139218;27;20051;-80
2022/04/08 06:29:59;;;;;;;10.20;1.50;;;2.40;99.90;;;;;;5139826;27;20462;-80
2022/04/08 06:32:24;;;;;;;8.18;1.75;;;2.40;99.90;;;;;;5158709;27;20045;-79
2022/04/08 06:34:50;;;;;;;9.00;1.77;;;2.50;99.90;;;;;;5158849;27;20685;-83
2022/04/08 06:37:16;;;;;;;6.97;1.60;;;2.50;99.90;;;;;;5138936;27;20047;-81
2022/04/08 06:39:42;;;;;;;5.63;1.33;;;2.60;99.90;;;;;;5122059;27;20046;-77
2022/04/08 06:42:07;;;;;;;5.18;1.35;;;2.70;99.90;;;;;;5120653;27;20058;-82
2022/04/08 06:44:33;;;;;;;4.60;1.25;;;2.80;99.90;;;;;;5157299;27;20046;-80
2022/04/08 06:46:59;;;;;;;7.60;1.48;;;2.90;99.90;;;;;;5138401;27;20135;-81
2022/04/08 06:49:25;;;;;;;6.47;1.30;;;3.10;99.90;;;;;;5138525;27;20042;-79
2022/04/08 06:51:53;;;;;;;4.47;1.05;;;3.10;99.90;;;;;;5138364;27;20047;-80
2022/04/08 06:54:19;;;;;;;7.75;1.50;;;3.10;99.90;;;;;;5122269;27;20146;-80
2022/04/08 06:56:44;;;;;;;10.27;1.35;;;3.00;99.90;;;;;;5103609;27;20122;-80
2022/04/08 06:59:11;;;;;;;8.77;1.70;;;3.00;99.90;;;;;;5138299;27;20162;-80
2022/04/08 07:01:36;;;;;;;8.55;1.23;;;3.10;99.90;;;;;;5121292;27;20043;-80
2022/04/08 07:04:02;;;;;;;5.80;1.40;;;3.20;99.90;;;;;;5103824;27;20133;-80
2022/04/08 07:06:29;;;;;;;7.18;1.67;;;3.30;99.90;;;;;;5155597;27;20077;-79
2022/04/08 07:08:56;;;;;;;4.50;1.00;;;3.30;99.90;;;;;;5155540;27;20049;-78
2022/04/08 07:11:22;;;;;;;7.00;1.27;;;3.40;99.90;;;;;;5102949;27;20047;-82
2022/04/08 07:13:47;;;;;;;5.38;0.90;;;3.50;99.90;;;;;;5120012;27;20039;-82
2022/04/08 07:16:14;;;;;;;5.75;1.30;;;3.70;99.90;;;;;;5103074;27;20081;-80
2022/04/08 07:18:40;;;;;;;4.97;0.95;;;3.80;99.90;;;;;;5119753;27;20042;-81
2022/04/08 07:21:07;;;;;;;9.27;1.20;;;3.90;99.90;;;;;;5121425;27;20047;-79
2022/04/08 07:23:33;;;;;;;5.13;1.30;;;4.10;99.90;;;;;;5158178;27;20346;-80
2022/04/08 07:25:58;;;;;;;10.70;1.42;;;4.20;99.90;;;;;;5121781;27;20051;-81
2022/04/08 07:28:24;;;;;;;6.30;1.80;;;4.20;99.90;;;;;;5156669;27;20099;-82
2022/04/08 07:30:51;;;;;;;10.82;2.03;;;4.40;99.90;;;;;;5137448;27;20039;-80
2022/04/08 07:33:16;;;;;;;11.32;1.98;;;4.40;99.90;;;;;;5137584;27;20069;-79
2022/04/08 07:35:43;;;;;;;9.85;2.00;;;4.50;99.90;;;;;;5120807;27;20047;-80
2022/04/08 07:38:09;;;;;;;7.40;1.95;;;4.50;99.90;;;;;;5124147;27;20059;-82
2022/04/08 07:40:35;;;;;;;5.43;1.83;;;4.50;99.90;;;;;;5159415;27;20467;-79
2022/04/08 07:43:00;;;;;;;7.85;1.77;;;4.60;99.90;;;;;;5124035;27;20058;-80
2022/04/08 07:45:30;;;;;;;7.65;2.15;;;4.50;99.90;;;;;;5138264;27;20067;-81
2022/04/08 07:47:58;;;;;;;7.80;1.80;;;4.50;99.90;;;;;;5138211;27;20122;-81
2022/04/08 07:50:26;;;;;;;9.68;2.30;;;4.40;99.90;;;;;;5155969;27;20104;-81
2022/04/08 07:52:52;;;;;;;10.43;2.42;;;4.50;99.90;;;;;;5103350;27;20058;-81
2022/04/08 07:55:20;;;;;;;6.18;1.55;;;4.40;99.90;;;;;;5120336;27;20047;-81
2022/04/08 07:57:47;;;;;;;6.10;2.13;;;4.50;99.90;;;;;;5120204;27;20482;-81
2022/04/08 08:00:35;;;;;;;8.18;2.55;;;4.40;99.90;;;;;;5138040;27;20047;-83
2022/04/08 08:03:01;;;;;;;6.70;1.73;;;4.40;99.90;;;;;;5136368;27;20549;-81
2022/04/08 08:05:27;;;;;;;7.70;1.63;;;4.30;99.90;;;;;;5136504;27;20121;-82
2022/04/08 08:07:55;;;;;;;6.40;2.00;;;4.30;99.90;;;;;;5136317;27;20077;-81
2022/04/08 08:10:22;;;;;;;9.50;3.47;;;4.20;99.90;;;;;;5136108;27;20054;-80
2022/04/08 08:12:50;;;;;;;9.32;2.17;;;4.00;99.90;;;;;;5118947;27;20050;-80
2022/04/08 08:15:18;;;;;;;12.23;3.35;;;4.00;99.90;;;;;;5135878;27;20082;-81
2022/04/08 08:17:44;;;;;;;16.55;4.40;;;3.80;99.90;;;;;;5136163;27;20125;-79
2022/04/08 08:20:12;;;;;;;15.52;3.85;;;3.80;99.90;;;;;;5154614;27;20042;-80
2022/04/08 08:22:39;;;;;;;12.43;3.85;;;3.80;99.90;;;;;;5136304;27;20126;-81
2022/04/08 08:25:06;;;;;;;16.00;4.25;;;3.80;99.90;;;;;;5119185;27;20098;-82
2022/04/08 08:27:48;;;;;;;50.78;7.07;;;3.90;99.90;;;;;;5136043;27;20378;-78
2022/04/08 08:30:17;;;;;;;19.38;5.53;;;4.00;99.90;;;;;;5119725;27;20089;-82
2022/04/08 08:32:48;;;;;;;12.85;3.58;;;4.10;99.90;;;;;;5136176;27;20393;-79
2022/04/08 08:35:17;;;;;;;16.10;2.60;;;4.10;99.90;;;;;;5155353;27;20414;-81
2022/04/08 08:37:43;;;;;;;7.07;2.88;;;4.20;99.90;;;;;;5158857;27;20182;-80
2022/04/08 08:40:11;;;;;;;14.63;3.45;;;4.40;99.90;;;;;;5141851;27;20065;-80
2022/04/08 08:42:40;;;;;;;16.13;3.65;;;4.50;99.90;;;;;;5141107;27;20046;-80
2022/04/08 08:45:08;;;;;;;9.95;1.60;;;4.60;99.90;;;;;;5159610;27;20035;-83
2022/04/08 08:47:35;;;;;;;13.15;1.88;;;4.60;99.90;;;;;;5159336;27;20095;-80
2022/04/08 08:50:01;;;;;;;11.60;1.77;;;4.50;99.90;;;;;;5141892;27;20161;-79
2022/04/08 08:52:29;;;;;;;6.43;1.70;;;4.40;99.90;;;;;;5125275;27;20049;-79
2022/04/08 08:54:55;;;;;;;;;;;4.40;99.90;;;;;;5125481;27;20405;-81
2022/04/08 08:57:22;;;;;;;12.10;1.77;;;4.30;99.90;;;;;;5140688;27;19952;-81
2022/04/08 08:59:51;;;;;;;9.43;2.10;;;4.20;99.90;;;;;;5107350;27;20051;-80
2022/04/08 09:02:20;;;;;;;12.35;2.08;;;4.10;99.90;;;;;;5159342;27;20046;-78
2022/04/08 09:04:46;;;;;;;9.48;2.53;;;4.20;99.90;;;;;;5159108;27;20046;-81
2022/04/08 09:07:26;;;;;;;14.02;2.80;;;4.40;99.90;;;;;;5123965;27;20039;-79
2022/04/08 09:09:53;;;;;;;11.82;3.53;;;4.70;99.90;;;;;;5159684;27;20565;-79
2022/04/08 09:12:22;;;;;;;16.15;3.05;;;4.90;99.90;;;;;;5141871;27;20050;-79
2022/04/08 09:14:53;;;;;;;11.68;3.10;;;5.10;99.90;;;;;;5142523;27;20368;-80
2022/04/08 09:17:20;;;;;;;16.77;4.07;;;5.40;99.90;;;;;;5143074;27;20042;-80
2022/04/08 09:19:46;;;;;;;;;;;5.60;99.90;;;;;;5161997;27;20054;-80
2022/04/08 09:22:12;;;;;;;15.63;4.07;;;5.70;99.90;;;;;;5159983;27;19919;-78
2022/04/08 09:24:38;;;;;;;16.35;4.05;;;5.80;99.90;;;;;;5141481;27;20050;-79
2022/04/08 09:27:03;;;;;;;21.08;4.85;;;6.00;99.90;;;;;;5143014;27;20031;-81
2022/04/08 09:29:29;;;;;;;20.38;4.43;;;6.20;99.90;;;;;;5161077;27;20050;-80
2022/04/08 09:31:59;;;;;;;20.45;5.55;;;6.50;99.90;;;;;;5123982;27;20043;-80
2022/04/08 09:34:25;;;;;;;20.10;5.30;;;6.60;99.90;;;;;;5140134;27;20150;-80
2022/04/08 09:36:51;;;;;;;23.90;5.47;;;6.70;99.90;;;;;;5140598;27;20241;-79
2022/04/08 09:39:18;;;;;;;18.20;5.10;;;6.70;99.90;;;;;;5158520;27;20165;-80
2022/04/08 09:41:49;;;;;;;16.60;4.83;;;6.80;99.90;;;;;;5158345;27;20553;-79
2022/04/08 09:44:24;;;;;;;20.33;4.93;;;7.00;99.90;;;;;;5139469;27;20118;-79
2022/04/08 09:46:50;;;;;;;20.15;5.10;;;7.00;99.90;;;;;;5157730;27;20046;-80
2022/04/08 09:49:16;;;;;;;26.50;5.25;;;7.00;99.90;;;;;;5158153;27;20042;-80
2022/04/08 09:51:42;;;;;;;15.23;3.65;;;7.10;99.90;;;;;;5138975;27;20053;-80
2022/04/08 09:54:12;;;;;;;17.02;3.20;;;7.00;99.90;;;;;;5139615;27;20042;-80
2022/04/08 09:56:38;;;;;;;14.27;3.10;;;7.00;99.90;;;;;;5138916;27;20456;-82
2022/04/08 09:59:11;;;;;;;16.27;3.17;;;7.00;99.90;;;;;;5138807;27;20488;-79
2022/04/08 10:01:38;;;;;;;10.90;2.90;;;7.10;99.90;;;;;;5139907;27;20054;-80
2022/04/08 10:04:07;;;;;;;18.45;4.13;;;7.20;99.90;;;;;;5157899;27;20042;-81
2022/04/08 10:06:37;;;;;;;17.75;3.25;;;7.20;99.90;;;;;;5157013;27;20445;-81
2022/04/08 10:09:06;;;;;;;12.98;2.28;;;7.40;99.90;;;;;;5138409;27;20045;-79
2022/04/08 10:11:57;;;;;;;17.58;2.00;;;7.40;99.90;;;;;;5138189;27;20059;-79
2022/04/08 10:14:47;;;;;;;11.77;1.70;;;7.20;99.90;;;;;;5156538;27;20400;-78
2022/04/08 10:17:14;;;;;;;15.43;1.67;;;7.30;99.90;;;;;;5138159;27;20039;-79
2022/04/08 10:19:41;;;;;;;13.75;1.75;;;7.40;99.90;;;;;;5138458;27;20287;-80
2022/04/08 10:22:19;;;;;;;13.90;2.00;;;7.50;99.90;;;;;;5156679;27;20451;-78
2022/04/08 10:24:57;;;;;;;9.52;1.60;;;7.50;99.90;;;;;;5157475;27;20047;-79
2022/04/08 10:27:38;;;;;;;13.70;1.45;;;7.40;99.90;;;;;;5137272;27;20553;-78
2022/04/08 10:30:19;;;;;;;12.38;1.70;;;7.60;99.90;;;;;;5156670;27;20050;-78
2022/04/08 10:32:47;;;;;;;16.95;2.25;;;7.80;99.90;;;;;;5138418;27;20053;-78
2022/04/08 10:35:20;;;;;;;9.93;1.58;;;7.90;99.90;;;;;;5105577;27;20137;-79
2022/04/08 10:38:01;;;;;;;14.80;1.73;;;7.90;99.90;;;;;;5122378;27;20154;-79
2022/04/08 10:40:37;;;;;;;12.52;1.73;;;8.10;99.90;;;;;;5138770;27;20098;-79
2022/04/08 10:43:08;;;;;;;12.68;1.90;;;8.10;99.90;;;;;;5138101;27;20039;-79
2022/04/08 10:45:35;;;;;;;10.02;1.55;;;8.10;99.90;;;;;;5137609;27;20050;-78
2022/04/08 10:48:12;;;;;;;16.00;1.48;;;8.20;99.90;;;;;;5155876;27;20051;-78
2022/04/08 10:50:39;;;;;;;10.82;1.27;;;8.30;99.90;;;;;;5121296;27;20371;-79
2022/04/08 10:53:07;;;;;;;13.63;1.20;;;8.30;99.90;;;;;;5103562;27;20054;-78
2022/04/08 10:56:10;;;;;;;10.90;1.25;;;8.30;99.90;;;;;;5137402;27;20042;-79
2022/04/08 10:58:41;;;;;;;6.93;1.05;;;8.40;99.90;;;;;;5125921;27;20055;-78
2022/04/08 11:01:24;;;;;;;13.25;1.58;;;8.50;99.90;;;;;;5138780;27;20078;-77
2022/04/08 11:03:55;;;;;;;9.23;1.50;;;8.70;99.90;;;;;;5137881;27;20073;-77
2022/04/08 11:06:24;;;;;;;9.55;1.55;;;8.80;99.90;;;;;;5103735;27;20046;-78
2022/04/08 11:08:50;;;;;;;11.88;1.60;;;8.80;99.90;;;;;;5137883;27;20038;-77
2022/04/08 11:11:16;;;;;;;13.15;1.48;;;8.60;99.90;;;;;;5136952;27;20055;-78
2022/04/08 11:13:42;;;;;;;13.13;1.92;;;8.50;99.90;;;;;;5143108;27;20160;-77
2022/04/08 11:16:08;;;;;;;8.30;1.30;;;8.40;99.90;;;;;;5161767;27;20114;-77
2022/04/08 11:18:34;;;;;;;19.65;2.10;;;8.40;99.90;;;;;;5160857;27;20458;-78
2022/04/08 11:21:00;;;;;;;8.48;1.95;;;8.40;99.90;;;;;;5159356;27;20055;-78
2022/04/08 11:23:28;;;;;;;17.48;2.40;;;8.50;99.90;;;;;;5124775;27;20123;-78
2022/04/08 11:25:55;;;;;;;11.32;1.70;;;8.50;99.90;;;;;;5138940;27;20056;-78
2022/04/08 11:28:23;;;;;;;17.30;2.42;;;8.60;99.90;;;;;;5141100;27;20054;-80
2022/04/08 11:30:59;;;;;;;15.80;2.90;;;8.70;99.90;;;;;;5161283;27;20128;-78
2022/04/08 11:33:26;;;;;;;12.40;2.38;;;8.80;99.90;;;;;;5125239;27;20129;-78
2022/04/08 11:35:57;;;;;;;15.65;2.00;;;9.00;99.90;;;;;;5160900;27;20122;-78
2022/04/08 11:38:24;;;;;;;8.63;1.90;;;9.00;99.90;;;;;;5123686;27;20046;-76
2022/04/08 11:40:50;;;;;;;8.77;1.92;;;8.90;99.90;;;;;;5123324;27;20042;-79
2022/04/08 11:43:17;;;;;;;10.52;3.08;;;8.80;99.90;;;;;;5139160;27;20049;-79
2022/04/08 11:45:46;;;;;;;10.05;1.95;;;8.90;99.90;;;;;;5121735;27;20043;-76
2022/04/08 11:48:15;;;;;;;14.63;2.35;;;9.00;99.90;;;;;;5124358;27;20116;-77
2022/04/08 11:50:42;;;;;;;7.00;1.95;;;9.00;99.90;;;;;;5107073;27;20047;-78
2022/04/08 11:53:17;;;;;;;;;;;8.90;99.90;;;;;;5125941;27;20125;-79
2022/04/08 11:56:01;;;;;;;11.45;1.88;;;8.70;99.90;;;;;;5125842;27;20263;-79
2022/04/08 11:58:30;;;;;;;15.55;3.08;;;8.50;99.90;;;;;;5141197;27;20046;-76
2022/04/08 12:01:00;;;;;;;16.10;3.63;;;7.90;99.90;;;;;;5161065;27;20086;-76
2022/04/08 12:03:32;;;;;;;13.40;3.53;;;7.20;99.90;;;;;;5142046;27;20047;-80
2022/04/08 12:06:01;;;;;;;15.57;3.47;;;7.00;99.90;;;;;;5126436;27;20107;-81
2022/04/08 12:08:29;;;;;;;20.02;4.20;;;6.90;99.90;;;;;;5144342;27;20371;-79
2022/04/08 12:10:57;;;;;;;11.02;3.00;;;6.60;99.90;;;;;;5123597;27;20049;-80
2022/04/08 12:13:29;;;;;;;8.68;2.88;;;6.60;99.90;;;;;;5122739;27;20125;-79
2022/04/08 12:15:58;;;;;;;7.47;1.95;;;6.50;99.90;;;;;;5139706;27;20054;-78
2022/04/08 12:18:32;;;;;;;8.85;1.92;;;6.60;99.90;;;;;;5137023;27;20038;-78
2022/04/08 12:21:05;;;;;;;16.38;2.05;;;6.80;99.90;;;;;;5119289;27;20089;-80
2022/04/08 12:23:32;;;;;;;8.95;1.60;;;6.80;99.90;;;;;;5136429;27;20054;-85
2022/04/08 12:26:02;;;;;;;12.80;2.23;;;6.90;99.90;;;;;;5119965;27;20054;-79
2022/04/08 12:28:31;;;;;;;14.95;2.20;;;7.10;99.90;;;;;;5121451;27;20086;-77
2022/04/08 12:30:58;;;;;;;12.00;3.08;;;7.30;99.90;;;;;;5138060;27;20051;-78
2022/04/08 12:33:26;;;;;;;9.93;2.65;;;7.50;99.90;;;;;;5119317;27;20479;-79
2022/04/08 12:35:53;;;;;;;;;;;7.70;99.90;;;;;;5137136;27;20367;-78
2022/04/08 12:38:22;;;;;;;13.93;3.17;;;7.90;99.90;;;;;;5136417;27;19937;-79
2022/04/08 12:40:49;;;;;;;12.75;3.38;;;8.20;99.90;;;;;;5136099;27;20054;-80
2022/04/08 12:43:16;;;;;;;12.48;3.10;;;8.40;99.90;;;;;;5119706;27;20047;-78
2022/04/08 12:45:42;;;;;;;10.55;2.75;;;8.60;99.90;;;;;;5136017;27;20125;-78
2022/04/08 12:48:15;;;;;;;13.38;3.42;;;8.80;99.90;;;;;;5136146;27;20043;-78
2022/04/08 12:50:43;;;;;;;18.00;2.85;;;9.00;99.90;;;;;;5156157;27;20043;-78
2022/04/08 12:53:09;;;;;;;13.25;2.92;;;9.20;99.90;;;;;;5120112;27;20074;-77
2022/04/08 12:55:35;;;;;;;11.27;2.28;;;9.30;99.90;;;;;;5154245;27;20079;-82